Time;durP1;ratioP1;P1;durP2;ratioP2;P2;SDS_P1;SDS_P2;PMS_P1;PMS_P2;Temp;Humidity;BMP_temperature;BMP_pressure;BME280_temperature;BME280_humidity;BME280_pressure;Samples;Min_cycle;Max_cycle;Signal;HPM_P1;HPM_P2
2022/06/24 00:02:00;;;;;;;7.63;6.57;;;;;;;19.03;100.00;99759.50;5064589;28;20586;-69
2022/06/24 00:04:28;;;;;;;10.10;7.78;;;;;;;19.01;100.00;99745.50;5089281;28;20028;-71
2022/06/24 00:06:54;;;;;;;11.02;9.32;;;;;;;19.08;100.00;99751.91;5083243;28;20035;-72
2022/06/24 00:09:20;;;;;;;16.05;9.25;;;;;;;18.98;100.00;99743.13;5083462;28;20028;-73
2022/06/24 00:12:01;;;;;;;13.85;11.02;;;;;;;18.84;100.00;99720.47;5057042;28;20055;-73
2022/06/24 00:14:26;;;;;;;16.00;12.45;;;;;;;18.93;100.00;99733.88;5090089;28;20397;-71
2022/06/24 00:16:55;;;;;;;16.20;13.27;;;;;;;18.64;100.00;99696.75;5083114;28;20040;-73
2022/06/24 00:19:22;;;;;;;18.35;12.95;;;;;;;18.87;100.00;99735.31;5074897;28;20036;-74
2022/06/24 00:22:08;;;;;;;14.60;13.13;;;;;;;18.84;100.00;99748.94;5063599;28;20020;-73
2022/06/24 00:24:35;;;;;;;14.70;13.25;;;;;;;18.84;100.00;99743.59;5083934;28;20070;-72
2022/06/24 00:27:01;;;;;;;11.40;10.13;;;;;;;18.73;100.00;99741.09;5086069;28;20498;-71
2022/06/24 00:29:29;;;;;;;18.90;11.13;;;;;;;18.47;100.00;99710.75;5083056;28;20085;-72
2022/06/24 00:32:06;;;;;;;13.73;9.70;;;;;;;18.50;100.00;99723.78;5061060;28;20424;-72
2022/06/24 00:34:33;;;;;;;13.45;12.05;;;;;;;18.38;100.00;99715.13;5091897;28;20028;-72
2022/06/24 00:37:24;;;;;;;14.93;11.55;;;;;;;18.30;100.00;99710.53;5059864;28;20016;-72
2022/06/24 00:39:53;;;;;;;13.38;10.68;;;;;;;18.24;100.00;99705.78;5092791;28;20409;-75
2022/06/24 00:42:19;;;;;;;14.57;12.80;;;;;;;18.29;100.00;99718.63;5054822;28;20029;-74
2022/06/24 00:45:02;;;;;;;17.73;14.23;;;;;;;18.25;100.00;99718.06;5072196;28;20031;-72
2022/06/24 00:47:28;;;;;;;14.93;13.50;;;;;;;18.24;100.00;99729.72;5071498;28;20482;-73
2022/06/24 00:49:55;;;;;;;15.85;14.05;;;;;;;18.15;100.00;99727.88;5090468;28;20389;-73
2022/06/24 00:52:20;;;;;;;17.52;13.85;;;;;;;18.15;100.00;99727.06;5086747;28;20033;-74
2022/06/24 00:54:46;;;;;;;15.38;13.95;;;;;;;18.20;100.00;99746.94;5056828;28;20020;-75
2022/06/24 00:57:11;;;;;;;19.23;15.15;;;;;;;18.16;100.00;99740.22;5087853;28;20036;-74
2022/06/24 00:59:37;;;;;;;19.33;15.52;;;;;;;18.22;100.00;99739.63;5070256;28;20067;-74
2022/06/24 01:02:06;;;;;;;15.32;13.68;;;;;;;18.27;100.00;99750.72;5055650;28;20109;-74
2022/06/24 01:04:33;;;;;;;19.40;14.25;;;;;;;18.28;100.00;99744.38;5082090;28;20359;-74
2022/06/24 01:06:58;;;;;;;19.50;16.40;;;;;;;18.25;100.00;99749.19;5088422;28;20097;-74
2022/06/24 01:09:24;;;;;;;16.23;14.60;;;;;;;18.24;100.00;99737.69;5083360;28;20745;-74
2022/06/24 01:11:49;;;;;;;18.45;16.42;;;;;;;18.17;100.00;99725.94;5082774;28;20111;-74
2022/06/24 01:14:15;;;;;;;18.65;14.82;;;;;;;18.23;100.00;99751.13;5093342;28;20024;-74
2022/06/24 01:16:41;;;;;;;16.83;14.18;;;;;;;18.32;100.00;99772.38;5085872;28;20060;-74
2022/06/24 01:19:08;;;;;;;18.08;15.57;;;;;;;18.35;100.00;99771.28;5079342;28;20055;-75
2022/06/24 01:21:38;;;;;;;17.27;15.10;;;;;;;18.35;100.00;99758.81;5069528;28;20029;-74
2022/06/24 01:24:07;;;;;;;17.95;15.90;;;;;;;18.31;100.00;99744.13;5089410;28;20036;-73
2022/06/24 01:26:33;;;;;;;18.00;16.15;;;;;;;18.16;100.00;99716.28;5094294;28;20032;-73
2022/06/24 01:28:58;;;;;;;20.13;17.10;;;;;;;18.17;100.00;99725.09;5067808;28;20024;-72
2022/06/24 01:31:24;;;;;;;17.15;13.45;;;;;;;18.13;100.00;99727.19;5085119;28;20116;-72
2022/06/24 01:33:49;;;;;;;16.08;13.57;;;;;;;18.11;100.00;99729.16;5058653;28;20029;-73
2022/06/24 01:36:14;;;;;;;19.30;15.13;;;;;;;18.12;100.00;99728.16;5085745;28;20028;-73
2022/06/24 01:38:40;;;;;;;17.08;15.30;;;;;;;18.25;100.00;99754.50;5085093;28;20035;-74
2022/06/24 01:41:05;;;;;;;16.65;14.95;;;;;;;18.16;100.00;99734.88;5092349;28;20781;-74
2022/06/24 01:43:30;;;;;;;22.05;14.68;;;;;;;18.16;100.00;99740.22;5075728;28;20371;-73
2022/06/24 01:45:56;;;;;;;15.95;13.73;;;;;;;18.20;100.00;99738.94;5076937;28;20021;-73
2022/06/24 01:48:21;;;;;;;16.42;14.38;;;;;;;18.18;100.00;99722.28;5065048;28;20028;-72
2022/06/24 01:50:47;;;;;;;19.30;15.70;;;;;;;18.19;100.00;99723.97;5077029;28;20391;-73
2022/06/24 01:53:12;;;;;;;19.58;15.20;;;;;;;18.00;100.00;99691.25;5089486;28;20108;-73
2022/06/24 01:55:37;;;;;;;16.83;15.18;;;;;;;18.15;100.00;99727.06;5067966;28;20055;-73
2022/06/24 01:58:03;;;;;;;19.00;14.77;;;;;;;18.14;100.00;99728.03;5083092;28;20153;-73
2022/06/24 02:00:28;;;;;;;18.15;16.40;;;;;;;18.13;100.00;99729.84;5063226;28;20044;-73
2022/06/24 02:02:54;;;;;;;19.85;15.70;;;;;;;18.14;100.00;99725.38;5045482;28;20461;-73
2022/06/24 02:05:19;;;;;;;17.65;15.88;;;;;;;18.08;100.00;99716.13;5092856;28;20465;-73
2022/06/24 02:07:45;;;;;;;17.52;15.23;;;;;;;18.19;100.00;99721.31;5079855;28;20435;-73
2022/06/24 02:15:38;;;;;;;17.05;15.45;;;;;;;18.26;100.00;99716.25;5082424;28;20067;-73
2022/06/24 02:18:03;;;;;;;16.15;14.50;;;;;;;18.12;100.00;99701.56;5074023;28;20103;-74
2022/06/24 02:20:28;;;;;;;16.60;15.00;;;;;;;18.15;100.00;99695.97;5070403;28;20106;-73
2022/06/24 02:22:54;;;;;;;16.48;14.75;;;;;;;18.19;100.00;99691.22;5058942;28;20032;-73
2022/06/24 02:25:19;;;;;;;19.50;15.23;;;;;;;18.18;100.00;99690.38;5084075;28;20101;-73
2022/06/24 02:27:46;;;;;;;16.52;14.73;;;;;;;18.22;100.00;99694.41;5072853;28;20021;-73
2022/06/24 02:30:12;;;;;;;16.55;15.05;;;;;;;18.09;100.00;99669.94;5075128;28;20047;-73
2022/06/24 02:32:37;;;;;;;18.02;15.23;;;;;;;18.22;100.00;99691.75;5082268;28;20060;-73
2022/06/24 02:35:03;;;;;;;15.40;13.82;;;;;;;18.25;100.00;99682.69;5075790;28;20036;-73
2022/06/24 02:37:28;;;;;;;20.90;15.32;;;;;;;18.19;100.00;99676.09;5044093;28;20123;-73
2022/06/24 02:39:54;;;;;;;18.58;15.02;;;;;;;18.15;100.00;99672.03;5058611;28;20082;-73
2022/06/24 02:42:19;;;;;;;18.02;16.25;;;;;;;18.19;100.00;99681.41;5078889;28;20047;-73
2022/06/24 02:44:44;;;;;;;21.98;15.95;;;;;;;18.16;100.00;99671.06;5084195;28;20029;-73
2022/06/24 02:47:10;;;;;;;17.38;15.57;;;;;;;18.35;100.00;99689.63;5073641;28;20093;-73
2022/06/24 02:49:35;;;;;;;18.60;16.77;;;;;;;18.31;100.00;99682.94;5054893;28;20036;-73
2022/06/24 02:52:00;;;;;;;19.55;16.83;;;;;;;18.39;100.00;99691.03;5074633;28;20033;-73
2022/06/24 02:54:26;;;;;;;20.98;18.85;;;;;;;18.35;100.00;99671.00;5067861;28;20479;-73
2022/06/24 02:56:51;;;;;;;22.25;20.05;;;;;;;18.45;100.00;99686.13;5065158;28;20060;-73
2022/06/24 02:59:16;;;;;;;20.05;18.15;;;;;;;18.37;100.00;99671.72;5073125;28;20021;-73
2022/06/24 03:01:42;;;;;;;21.35;19.23;;;;;;;18.43;100.00;99680.09;5061092;28;20378;-73
2022/06/24 03:04:07;;;;;;;21.52;19.25;;;;;;;18.17;100.00;99635.53;5082531;28;20157;-73
2022/06/24 03:06:32;;;;;;;21.98;19.88;;;;;;;18.36;100.00;99651.41;5061392;28;20033;-73
2022/06/24 03:08:58;;;;;;;21.67;19.55;;;;;;;18.42;100.00;99647.31;5094348;28;20469;-73
2022/06/24 03:11:23;;;;;;;20.38;18.33;;;;;;;18.36;100.00;99643.44;5085253;28;20032;-73
2022/06/24 03:13:48;;;;;;;21.00;18.67;;;;;;;18.33;100.00;99635.75;5038225;28;20113;-73
2022/06/24 03:16:14;;;;;;;18.25;16.45;;;;;;;18.41;100.00;99648.34;5083086;28;20533;-73
2022/06/24 03:18:39;;;;;;;20.73;18.73;;;;;;;18.34;100.00;99632.13;5080923;28;20036;-73
2022/06/24 03:21:07;;;;;;;19.63;17.58;;;;;;;18.42;100.00;99644.66;5092010;28;20027;-73
2022/06/24 03:23:33;;;;;;;20.50;18.42;;;;;;;18.30;100.00;99625.41;5064197;28;20492;-73
2022/06/24 03:26:02;;;;;;;21.27;17.73;;;;;;;18.35;100.00;99627.63;5091081;28;20146;-73
2022/06/24 03:28:27;;;;;;;18.83;16.92;;;;;;;18.31;100.00;99624.44;5062546;28;20137;-73
2022/06/24 03:30:52;;;;;;;22.00;19.75;;;;;;;18.29;100.00;99628.19;5085291;28;20442;-73
2022/06/24 03:33:18;;;;;;;21.00;18.83;;;;;;;18.22;100.00;99609.31;5085367;28;20474;-73
2022/06/24 03:35:43;;;;;;;19.30;17.50;;;;;;;18.30;100.00;99625.41;5078674;28;20024;-73
2022/06/24 03:38:08;;;;;;;20.13;18.10;;;;;;;18.28;100.00;99626.53;5090269;28;20032;-73
2022/06/24 03:40:34;;;;;;;21.15;19.02;;;;;;;18.19;100.00;99606.94;5088312;28;20110;-73
2022/06/24 03:42:59;;;;;;;21.80;19.48;;;;;;;18.27;100.00;99617.72;5081513;28;20031;-75
2022/06/24 03:45:25;;;;;;;22.38;20.23;;;;;;;18.13;100.00;99594.22;5092242;28;20085;-73
2022/06/24 03:47:50;;;;;;;24.08;21.83;;;;;;;18.21;100.00;99601.50;5066208;28;20032;-73
2022/06/24 03:50:16;;;;;;;24.05;21.30;;;;;;;18.20;100.00;99608.63;5063104;28;20446;-73
2022/06/24 03:52:41;;;;;;;23.75;21.58;;;;;;;18.13;100.00;99598.72;5090530;28;20026;-73
2022/06/24 03:55:07;;;;;;;22.92;20.65;;;;;;;18.19;100.00;99617.59;5082578;28;20020;-73
2022/06/24 03:57:32;;;;;;;26.40;23.48;;;;;;;18.12;100.00;99600.53;5084148;28;20033;-73
2022/06/24 03:59:58;;;;;;;25.20;22.75;;;;;;;17.80;100.00;99552.22;5050566;28;20417;-73
2022/06/24 04:02:23;;;;;;;24.98;22.38;;;;;;;18.21;100.00;99617.47;5055029;28;20459;-73
2022/06/24 04:04:49;;;;;;;29.13;23.40;;;;;;;18.07;100.00;99592.16;5088882;28;20028;-73
2022/06/24 04:07:14;;;;;;;31.85;27.20;;;;;;;18.17;100.00;99608.09;5073015;28;20074;-73
2022/06/24 04:09:39;;;;;;;36.83;27.63;;;;;;;18.15;100.00;99610.06;5083899;28;20027;-73
2022/06/24 04:12:05;;;;;;;31.83;26.48;;;;;;;18.21;100.00;99614.78;5074512;28;20042;-73
2022/06/24 04:17:14;;;;;;;31.23;28.23;;;;;;;18.20;100.00;99623.75;5073002;28;20070;-73
2022/06/24 04:19:40;;;;;;;32.53;28.08;;;;;;;18.20;100.00;99629.91;5087938;28;20051;-73
2022/06/24 04:22:05;;;;;;;31.55;28.35;;;;;;;18.18;100.00;99647.81;5088817;28;20020;-73
2022/06/24 04:24:31;;;;;;;28.20;25.05;;;;;;;18.22;100.00;99673.16;5077983;28;20032;-72
2022/06/24 04:26:56;;;;;;;29.40;26.30;;;;;;;18.12;100.00;99669.66;5081256;28;20377;-73
2022/06/24 04:29:21;;;;;;;32.53;28.95;;;;;;;18.12;100.00;99674.13;5066136;28;20055;-72
2022/06/24 04:31:47;;;;;;;31.70;28.60;;;;;;;17.57;100.00;99588.06;5079938;28;20069;-73
2022/06/24 04:34:12;;;;;;;31.48;28.25;;;;;;;18.15;100.00;99687.19;5051416;28;20023;-73
2022/06/24 04:36:37;;;;;;;36.17;26.80;;;;;;;18.13;100.00;99682.00;5061004;28;20441;-72
2022/06/24 04:39:03;;;;;;;33.08;26.88;;;;;;;18.12;100.00;99680.31;5089277;28;20028;-72
2022/06/24 04:41:29;;;;;;;30.85;27.27;;;;;;;18.13;100.00;99686.47;5082371;28;20131;-72
2022/06/24 04:43:54;;;;;;;27.75;25.00;;;;;;;18.06;100.00;99675.56;5085581;28;20058;-72
2022/06/24 04:46:20;;;;;;;29.17;26.13;;;;;;;18.01;100.00;99688.47;5049008;28;20032;-72
2022/06/24 04:48:46;;;;;;;32.28;29.08;;;;;;;18.03;100.00;99683.81;5074521;28;20032;-73
2022/06/24 04:51:12;;;;;;;29.52;26.48;;;;;;;17.71;100.00;99625.63;5075726;28;20082;-73
2022/06/24 04:53:37;;;;;;;32.40;25.85;;;;;;;18.09;100.00;99685.91;5073037;28;20024;-72
2022/06/24 04:56:03;;;;;;;29.35;26.60;;;;;;;17.88;100.00;99663.94;5059846;28;20070;-73
2022/06/24 04:58:28;;;;;;;31.17;27.17;;;;;;;18.04;100.00;99688.16;5073200;28;20105;-72
2022/06/24 05:00:53;;;;;;;28.90;26.00;;;;;;;18.06;100.00;99696.00;5044699;28;20020;-72
2022/06/24 05:03:19;;;;;;;29.80;26.75;;;;;;;18.14;100.00;99712.09;5050373;28;20020;-72
2022/06/24 05:05:44;;;;;;;26.77;23.90;;;;;;;18.06;100.00;99703.97;5089921;28;20078;-73
2022/06/24 05:08:10;;;;;;;27.90;25.05;;;;;;;18.02;100.00;99710.53;5074268;28;20062;-73
2022/06/24 05:10:35;;;;;;;27.92;24.98;;;;;;;18.04;100.00;99719.22;5077699;28;20028;-72
2022/06/24 05:13:00;;;;;;;27.30;24.67;;;;;;;17.90;100.00;99709.84;5088519;28;20047;-74
2022/06/24 05:15:26;;;;;;;28.13;25.23;;;;;;;17.91;100.00;99697.41;5058229;28;20070;-73
2022/06/24 05:17:51;;;;;;;26.45;23.85;;;;;;;17.79;100.00;99694.03;5064827;28;20027;-73
2022/06/24 05:20:17;;;;;;;30.05;26.98;;;;;;;17.77;100.00;99685.38;5058258;28;20029;-74
2022/06/24 05:22:42;;;;;;;28.67;25.65;;;;;;;17.89;100.00;99700.19;5066766;28;20116;-74
2022/06/24 05:25:08;;;;;;;26.70;23.88;;;;;;;17.91;100.00;99713.38;5058202;28;20029;-73
2022/06/24 05:27:33;;;;;;;29.92;27.05;;;;;;;17.84;100.00;99697.94;5064009;28;20478;-73
2022/06/24 05:29:59;;;;;;;29.08;25.98;;;;;;;17.90;100.00;99707.19;5068509;28;20035;-73
2022/06/24 05:32:24;;;;;;;28.35;25.38;;;;;;;17.80;100.00;99699.22;5074304;28;20514;-74
2022/06/24 05:34:50;;;;;;;28.65;25.67;;;;;;;17.84;100.00;99707.78;5085869;28;20508;-73
2022/06/24 05:37:15;;;;;;;29.92;26.80;;;;;;;17.41;100.00;99635.53;5073125;28;20028;-73
2022/06/24 05:39:40;;;;;;;32.95;26.60;;;;;;;17.88;100.00;99699.34;5054373;28;20056;-73
2022/06/24 05:42:06;;;;;;;29.25;26.23;;;;;;;17.64;100.00;99658.25;5050906;28;20165;-74
2022/06/24 05:44:32;;;;;;;28.60;25.98;;;;;;;17.82;100.00;99685.78;5061398;28;20362;-73
2022/06/24 05:46:57;;;;;;;31.30;27.60;;;;;;;17.88;100.00;99687.06;5055430;28;20029;-73
2022/06/24 05:49:22;;;;;;;30.70;25.73;;;;;;;17.93;100.00;99701.59;5053545;28;20025;-73
2022/06/24 05:51:48;;;;;;;24.48;21.58;;;;;;;17.84;100.00;99686.50;5066215;28;20047;-73
2022/06/24 05:56:57;;;;;;;25.35;22.42;;;;;;;17.82;100.00;99675.16;5066768;28;20078;-73
2022/06/24 05:59:22;;;;;;;24.55;22.17;;;;;;;17.81;100.00;99670.84;5065963;28;20032;-73
2022/06/24 06:01:49;;;;;;;28.13;22.00;;;;;;;17.84;100.00;99682.00;5078931;28;20107;-73
2022/06/24 06:04:14;;;;;;;30.85;23.05;;;;;;;17.66;100.00;99656.28;5090182;28;20024;-73
2022/06/24 06:06:40;;;;;;;25.38;22.17;;;;;;;17.90;100.00;99685.94;5080686;28;20070;-73
2022/06/24 06:09:05;;;;;;;23.98;21.65;;;;;;;17.83;100.00;99679.50;5084358;28;20051;-73
2022/06/24 06:11:31;;;;;;;31.83;22.75;;;;;;;17.83;100.00;99682.16;5063959;28;20033;-73
2022/06/24 06:13:56;;;;;;;27.17;24.48;;;;;;;17.59;100.00;99634.75;5058473;28;20025;-73
2022/06/24 06:16:22;;;;;;;22.33;20.05;;;;;;;17.86;100.00;99681.88;5070507;28;20020;-74
2022/06/24 06:18:49;;;;;;;22.65;20.45;;;;;;;17.55;100.00;99637.78;5046689;28;20024;-74
2022/06/24 06:21:15;;;;;;;21.73;19.55;;;;;;;17.84;100.00;99691.81;5046747;28;20067;-74
2022/06/24 06:23:41;;;;;;;23.48;19.33;;;;;;;17.83;100.00;99692.78;5073805;28;20041;-74
2022/06/24 06:26:08;;;;;;;29.90;20.08;;;;;;;17.84;100.00;99689.16;5082067;28;20016;-74
2022/06/24 06:28:34;;;;;;;20.13;17.95;;;;;;;17.74;100.00;99669.72;5058659;28;20029;-74
2022/06/24 06:30:59;;;;;;;20.83;17.77;;;;;;;17.81;100.00;99687.59;5081131;28;20020;-74
2022/06/24 06:33:25;;;;;;;20.33;18.23;;;;;;;17.73;100.00;99671.53;5069578;28;20044;-74
2022/06/24 06:35:50;;;;;;;28.52;18.23;;;;;;;17.79;100.00;99678.09;5093712;28;20382;-74
2022/06/24 06:38:16;;;;;;;26.02;16.70;;;;;;;17.71;100.00;99676.13;5073324;28;20021;-74
2022/06/24 06:40:41;;;;;;;24.02;18.08;;;;;;;17.73;100.00;99673.34;5076716;28;20032;-74
2022/06/24 06:43:07;;;;;;;22.92;20.60;;;;;;;17.74;100.00;99669.72;5055779;28;20023;-74
2022/06/24 06:45:33;;;;;;;23.10;19.73;;;;;;;17.88;100.00;99693.19;5080212;28;20025;-74
2022/06/24 06:47:59;;;;;;;25.77;21.73;;;;;;;17.85;100.00;99677.53;5088022;28;20089;-74
2022/06/24 06:50:25;;;;;;;24.58;20.75;;;;;;;18.04;100.00;99692.66;5077152;28;20040;-74
2022/06/24 06:52:51;;;;;;;28.00;22.10;;;;;;;18.01;100.00;99682.28;5073000;28;20088;-74
2022/06/24 06:55:16;;;;;;;27.77;24.92;;;;;;;18.23;100.00;99693.44;5076325;28;20028;-74
2022/06/24 06:57:42;;;;;;;30.15;25.58;;;;;;;18.25;100.00;99677.38;5063974;28;20033;-73
2022/06/24 07:00:09;;;;;;;31.50;28.20;;;;;;;18.38;100.00;99686.69;5066262;28;20616;-73
2022/06/24 07:02:35;;;;;;;33.97;30.50;;;;;;;18.43;100.00;99678.28;5080759;28;20024;-73
2022/06/24 07:05:00;;;;;;;31.35;28.15;;;;;;;18.56;100.00;99685.97;5093495;28;20035;-73
2022/06/24 07:07:26;;;;;;;32.72;28.17;;;;;;;18.57;100.00;99695.63;5061453;28;20033;-73
2022/06/24 07:09:51;;;;;;;27.30;24.70;;;;;;;18.46;100.00;99682.47;5057855;28;20025;-73
2022/06/24 07:12:17;;;;;;;29.73;26.63;;;;;;;18.57;100.00;99701.81;5059746;28;20031;-73
2022/06/24 07:14:43;;;;;;;29.20;25.45;;;;;;;18.49;100.00;99671.53;5082503;28;20389;-73
2022/06/24 07:17:09;;;;;;;26.15;23.35;;;;;;;18.60;100.00;99690.03;5060904;28;20043;-72
2022/06/24 07:19:35;;;;;;;23.35;21.15;;;;;;;18.72;100.00;99699.53;5092305;28;20077;-73
2022/06/24 07:22:00;;;;;;;25.20;22.63;;;;;;;18.69;100.00;99694.50;5080470;28;20020;-73
2022/06/24 07:24:26;;;;;;;24.02;21.35;;;;;;;18.73;100.00;99694.03;5092348;28;20519;-73
2022/06/24 07:26:51;;;;;;;22.23;19.77;;;;;;;18.68;100.00;99692.81;5059538;28;20032;-73
2022/06/24 07:29:17;;;;;;;24.63;22.05;;;;;;;18.65;100.00;99687.78;5088657;28;20127;-73
2022/06/24 07:31:42;;;;;;;22.60;18.77;;;;;;;18.69;100.00;99697.16;5083687;28;20467;-73
2022/06/24 07:34:11;;;;;;;22.63;20.02;;;;;;;18.63;100.00;99684.41;5023261;28;20149;-73
2022/06/24 07:36:36;;;;;;;23.92;19.65;;;;;;;18.68;100.00;99693.66;5018619;28;20029;-74
2022/06/24 07:39:05;;;;;;;19.67;17.65;;;;;;;18.69;100.00;99705.94;5011575;28;20795;-74
2022/06/24 07:41:30;;;;;;;18.70;16.23;;;;;;;18.66;100.00;99703.59;5046405;28;20921;-73
2022/06/24 07:43:56;;;;;;;20.73;15.52;;;;;;;18.58;100.00;99689.34;5042280;28;20032;-73
2022/06/24 07:46:21;;;;;;;17.23;15.55;;;;;;;18.57;100.00;99692.97;4997873;28;20025;-74
2022/06/24 07:48:46;;;;;;;20.45;16.23;;;;;;;18.35;100.00;99632.97;5030688;28;20067;-75
2022/06/24 07:51:14;;;;;;;19.48;17.48;;;;;;;18.84;100.00;99704.50;5039976;28;20082;-74
2022/06/24 07:53:43;;;;;;;20.45;15.02;;;;;;;18.86;100.00;99699.88;5041722;28;20900;-74
2022/06/24 07:58:53;;;;;;;15.25;13.63;;;;;;;18.86;100.00;99693.69;5040919;28;20162;-74
2022/06/24 08:01:19;;;;;;;14.45;13.02;;;;;;;18.82;100.00;99684.34;5017363;28;20547;-75
2022/06/24 08:03:44;;;;;;;18.02;14.10;;;;;;;18.88;100.00;99691.75;5034283;28;20034;-74
2022/06/24 08:06:10;;;;;;;18.05;12.70;;;;;;;18.35;100.00;99595.72;5009943;28;20143;-74
2022/06/24 08:08:36;;;;;;;13.23;11.32;;;;;;;18.98;100.00;99686.38;5021347;28;20024;-74
2022/06/24 08:11:01;;;;;;;16.80;13.40;;;;;;;18.98;100.00;99683.72;5040798;28;20035;-74
2022/06/24 08:13:27;;;;;;;24.08;12.90;;;;;;;19.11;100.00;99678.88;5043169;28;20028;-75
2022/06/24 08:15:52;;;;;;;16.23;11.55;;;;;;;18.83;100.00;99604.31;5034139;28;20090;-75
2022/06/24 08:18:19;;;;;;;13.10;11.68;;;;;;;19.55;100.00;99682.53;5039502;28;20113;-74
2022/06/24 08:20:44;;;;;;;14.88;11.15;;;;;;;19.68;100.00;99672.34;5005970;28;20029;-74
2022/06/24 08:23:10;;;;;;;14.30;12.73;;;;;;;20.04;100.00;99679.31;5033488;28;20030;-74
2022/06/24 08:25:35;;;;;;;11.93;7.07;;;;;;;20.29;100.00;99693.72;5031381;28;20020;-74
2022/06/24 08:28:01;;;;;;;8.02;5.45;;;;;;;19.94;100.00;99646.56;5039293;28;20020;-75
2022/06/24 08:30:28;;;;;;;9.55;5.75;;;;;;;20.08;100.00;99671.84;5032731;28;20028;-75
2022/06/24 08:32:53;;;;;;;14.00;6.95;;;;;;;20.02;100.00;99675.97;5035336;28;20036;-75
2022/06/24 08:35:19;;;;;;;7.90;5.38;;;;;;;19.95;100.00;99672.25;5036562;28;20949;-74
2022/06/24 08:37:45;;;;;;;10.85;6.03;;;;;;;20.07;100.00;99687.03;5041229;28;20031;-75
2022/06/24 08:40:11;;;;;;;7.38;5.30;;;;;;;20.09;100.00;99690.38;5027958;28;20034;-75
2022/06/24 08:42:38;;;;;;;13.50;4.28;;;;;;;19.96;100.00;99695.25;5036883;28;20028;-74
2022/06/24 08:45:05;;;;;;;7.80;5.10;;;;;;;19.84;100.00;99683.16;5029442;28;20032;-75
2022/06/24 08:47:31;;;;;;;10.45;5.28;;;;;;;19.82;100.00;99690.47;5035843;28;20082;-76
2022/06/24 08:49:56;;;;;;;7.93;4.63;;;;;;;19.78;100.00;99691.75;5021647;28;20906;-76
2022/06/24 08:52:22;;;;;;;7.80;4.60;;;;;;;19.94;100.00;99683.91;5034001;28;20024;-75
2022/06/24 08:54:53;;;;;;;8.65;4.55;;;;;;;20.01;100.00;99668.94;5041167;28;20028;-73
2022/06/24 08:57:18;;;;;;;11.35;4.85;;;;;;;20.04;100.00;99665.16;5017602;28;20135;-74
2022/06/24 08:59:45;;;;;;;5.97;4.13;;;;;;;20.28;100.00;99666.19;5038789;28;20035;-74
2022/06/24 09:02:14;;;;;;;8.23;5.45;;;;;;;20.65;100.00;99681.13;5049585;28;20237;-75
2022/06/24 09:04:44;;;;;;;6.93;5.03;;;;;;;20.75;100.00;99673.81;5045120;28;20119;-74
2022/06/24 09:07:28;;;;;;;8.18;5.28;;;;;;;20.82;100.00;99674.84;5049200;28;20123;-73
2022/06/24 09:10:01;;;;;;;9.63;5.13;;;;;;;20.79;100.00;99664.47;5048448;28;20029;-73
2022/06/24 09:12:56;;;;;;;8.70;4.57;;;;;;;20.78;100.00;99665.50;5047531;28;20028;-73
2022/06/24 09:15:22;;;;;;;6.43;3.55;;;;;;;20.73;100.00;99657.94;5009027;28;20075;-74
2022/06/24 09:17:48;;;;;;;7.82;3.80;;;;;;;20.62;100.00;99652.03;5023926;28;20020;-73
2022/06/24 09:20:21;;;;;;;11.68;4.50;;;;;;;20.63;100.00;99659.06;5048191;28;20755;-73
2022/06/24 09:22:47;;;;;;;10.02;4.68;;;;;;;20.78;100.00;99673.50;5039804;28;20408;-72
2022/06/24 09:25:13;;;;;;;7.75;4.88;;;;;;;20.92;100.00;99665.69;5045373;28;20078;-72
2022/06/24 09:27:47;;;;;;;10.07;5.00;;;;;;;21.08;100.00;99656.94;5018728;28;20766;-72
2022/06/24 09:30:15;;;;;;;7.75;5.50;;;;;;;20.77;100.00;99615.75;5014081;28;20063;-72
2022/06/24 09:32:55;;;;;;;9.02;4.68;;;;;;;20.59;100.00;99583.78;5039165;28;20557;-73
2022/06/24 09:35:24;;;;;;;9.25;4.30;;;;;;;20.86;100.00;99634.28;5044672;28;20032;-72
2022/06/24 09:37:51;;;;;;;4.90;4.28;;;;;;;20.99;100.00;99665.09;5041124;28;20024;-72
2022/06/24 09:40:22;;;;;;;10.25;4.20;;;;;;;21.06;100.00;99661.56;5021729;28;20917;-73
2022/06/24 09:42:52;;;;;;;10.25;4.43;;;;;;;21.10;100.00;99668.31;5051497;28;20040;-73
2022/06/24 09:45:18;;;;;;;6.60;3.75;;;;;;;20.71;100.00;99629.75;5052707;28;20078;-73
2022/06/24 09:47:50;;;;;;;8.52;4.18;;;;;;;20.73;100.00;99657.09;5028227;28;21596;-73
2022/06/24 09:50:20;;;;;;;8.35;4.80;;;;;;;20.89;100.00;99673.19;5023061;28;20037;-72
2022/06/24 09:52:49;;;;;;;7.15;3.80;;;;;;;20.99;100.00;99681.91;5020175;28;20138;-72
2022/06/24 09:55:16;;;;;;;6.13;3.47;;;;;;;21.15;100.00;99687.38;5026843;28;20019;-72
2022/06/24 09:57:41;;;;;;;5.85;3.75;;;;;;;21.28;100.00;99669.06;5022971;28;20032;-72
2022/06/24 10:02:53;;;;;;;4.95;2.38;;;;;;;21.69;100.00;99696.72;5036586;28;20109;-72
2022/06/24 10:05:20;;;;;;;4.63;1.90;;;;;;;21.54;100.00;99668.09;5024488;28;20074;-72
2022/06/24 10:07:47;;;;;;;3.95;2.05;;;;;;;21.83;100.00;99679.16;5005404;28;20131;-71
2022/06/24 10:10:14;;;;;;;5.65;3.00;;;;;;;22.13;100.00;99691.06;5021029;28;20144;-71
2022/06/24 10:12:46;;;;;;;8.93;2.70;;;;;;;22.37;100.00;99685.69;5025442;28;20088;-71
2022/06/24 10:15:14;;;;;;;5.25;2.83;;;;;;;22.51;100.00;99686.84;5021798;28;20028;-71
2022/06/24 10:17:42;;;;;;;6.40;3.50;;;;;;;22.38;100.00;99695.38;5039406;28;20976;-71
2022/06/24 10:20:09;;;;;;;5.20;3.70;;;;;;;22.03;100.00;99693.94;5020252;28;20074;-72
2022/06/24 10:22:42;;;;;;;4.90;3.08;;;;;;;21.74;100.00;99693.53;5017580;28;20032;-71
2022/06/24 10:25:08;;;;;;;6.43;2.70;;;;;;;21.75;100.00;99700.56;5010926;28;20060;-71
2022/06/24 10:27:58;;;;;;;4.88;3.25;;;;;;;21.71;100.00;99708.06;5047123;28;20020;-72
2022/06/24 10:30:39;;;;;;;5.55;3.60;;;;;;;21.77;100.00;99707.41;5035116;28;20031;-71
2022/06/24 10:33:15;;;;;;;5.15;3.03;;;;;;;21.87;100.00;99704.56;5041750;28;20034;-72
2022/06/24 10:36:00;;;;;;;6.32;3.20;;;;;;;21.95;100.00;99696.59;5047530;28;20078;-71
2022/06/24 10:38:34;;;;;;;7.05;3.60;;;;;;;21.56;100.00;99642.03;5040578;28;20091;-71
2022/06/24 10:41:02;;;;;;;4.60;3.17;;;;;;;21.79;100.00;99691.19;5016913;28;20026;-72
2022/06/24 10:43:35;;;;;;;6.97;2.95;;;;;;;21.63;100.00;99685.84;5036138;28;20281;-73
2022/06/24 10:46:13;;;;;;;11.27;2.70;;;;;;;21.70;100.00;99694.84;5012710;28;20024;-72
2022/06/24 10:48:59;;;;;;;5.05;2.00;;;;;;;21.81;100.00;99668.63;5025825;28;20036;-71
2022/06/24 10:51:28;;;;;;;3.05;1.80;;;;;;;22.19;100.00;99704.63;5051915;28;20029;-73
2022/06/24 10:54:03;;;;;;;4.10;2.20;;;;;;;21.94;100.00;99702.09;5052187;28;20889;-70
2022/06/24 10:56:44;;;;;;;3.17;1.85;;;;;;;21.45;100.00;99699.31;5018822;28;20173;-72
2022/06/24 10:59:12;;;;;;;3.55;2.15;;;;;;;20.98;100.00;99672.25;5031595;28;20024;-72
2022/06/24 11:01:42;;;;;;;4.82;2.08;;;;;;;20.74;100.00;99685.50;5035266;28;20916;-73
2022/06/24 11:04:12;;;;;;;5.05;2.33;;;;;;;20.36;100.00;99673.41;5028003;28;20027;-73
2022/06/24 11:06:38;;;;;;;4.82;2.40;;;;;;;20.10;100.00;99673.38;5026166;28;20028;-73
2022/06/24 11:09:06;;;;;;;3.47;2.30;;;;;;;20.30;100.00;99690.91;5018679;28;20123;-73
2022/06/24 11:11:33;;;;;;;4.85;2.58;;;;;;;20.25;100.00;99662.97;5008933;28;20056;-73
2022/06/24 11:13:59;;;;;;;3.78;2.42;;;;;;;20.37;100.00;99675.94;5045894;28;20049;-73
2022/06/24 11:16:28;;;;;;;3.65;2.50;;;;;;;20.47;100.00;99673.16;5014949;28;20163;-72
2022/06/24 11:18:54;;;;;;;12.07;2.67;;;;;;;20.14;100.00;99616.03;5052398;28;20021;-72
2022/06/24 11:21:20;;;;;;;3.40;2.00;;;;;;;20.53;100.00;99653.00;5019613;28;20868;-72
2022/06/24 11:23:47;;;;;;;3.10;1.95;;;;;;;20.62;100.00;99650.22;5047140;28;20025;-71
2022/06/24 11:26:15;;;;;;;4.82;2.13;;;;;;;20.78;100.00;99642.28;5026227;28;20032;-71
2022/06/24 11:28:42;;;;;;;3.38;1.52;;;;;;;21.03;100.00;99651.22;5037336;28;20052;-70
2022/06/24 11:31:28;;;;;;;3.60;1.80;;;;;;;21.40;100.00;99669.56;5009677;28;20036;-71